createdAt,value
2023-09-27T00:00:37.829Z,101753.50
2023-09-27T00:05:35.136Z,101751.06
2023-09-27T00:10:32.016Z,101754.78
2023-09-27T00:15:29.351Z,101753.22
2023-09-27T00:20:26.406Z,101748.03
2023-09-27T00:25:23.314Z,101749.97
2023-09-27T00:30:20.552Z,101741.34
2023-09-27T00:35:24.485Z,101729.28
2023-09-27T00:40:24.385Z,101757.28
2023-09-27T00:45:21.530Z,101768.84
2023-09-27T00:50:18.636Z,101790.69
2023-09-27T00:55:21.387Z,101782.91
2023-09-27T01:00:19.587Z,101785.59
2023-09-27T01:05:18.259Z,101788.22
2023-09-27T01:10:15.825Z,101782.16
2023-09-27T01:15:12.857Z,101796.94
2023-09-27T01:20:13.909Z,101802.16
2023-09-27T01:25:16.386Z,101808.00
2023-09-27T01:30:13.228Z,101800.97
2023-09-27T01:35:10.139Z,101772.28
2023-09-27T01:40:10.593Z,101797.16
2023-09-27T01:45:07.909Z,101751.03
2023-09-27T01:50:05.065Z,101775.09
2023-09-27T01:55:01.952Z,101749.78
2023-09-27T01:59:58.877Z,101737.53
2023-09-27T02:04:56.217Z,101747.97
2023-09-27T02:09:53.040Z,101731.84
2023-09-27T02:14:49.793Z,101745.63
2023-09-27T02:19:46.581Z,101715.94
2023-09-27T02:24:43.290Z,101738.81
2023-09-27T02:29:40.102Z,101709.53
2023-09-27T02:34:37.259Z,101688.75
2023-09-27T02:39:34.324Z,101713.06
2023-09-27T02:44:31.446Z,101694.81
2023-09-27T02:49:28.350Z,101698.34
2023-09-27T02:54:25.500Z,101678.00
2023-09-27T02:59:22.382Z,101681.47
2023-09-27T03:04:19.185Z,101698.75
2023-09-27T03:09:16.346Z,101676.09
2023-09-27T03:14:13.140Z,101668.34
2023-09-27T03:19:10.633Z,101685.06
2023-09-27T03:24:07.910Z,101689.50
2023-09-27T03:29:05.922Z,101647.25
2023-09-27T03:34:02.664Z,101686.94
2023-09-27T03:38:59.391Z,101691.28
2023-09-27T03:43:56.354Z,101647.16
2023-09-27T03:48:53.426Z,101683.41
2023-09-27T03:53:50.527Z,101666.19
2023-09-27T03:58:47.409Z,101678.16
2023-09-27T04:03:44.726Z,101686.94
2023-09-27T04:08:41.529Z,101704.28
2023-09-27T04:13:38.344Z,101683.41
2023-09-27T04:18:35.367Z,101685.06
2023-09-27T04:23:32.201Z,101680.63
2023-09-27T04:28:28.970Z,101667.44
2023-09-27T04:33:26.093Z,101653.56
2023-09-27T04:38:22.967Z,101629.34
2023-09-27T04:43:19.895Z,101636.84
2023-09-27T04:48:16.990Z,101624.84
2023-09-27T04:53:13.832Z,101632.72
2023-09-27T04:58:10.576Z,101653.38
2023-09-27T05:03:09.177Z,101648.94
2023-09-27T05:08:06.522Z,101655.00
2023-09-27T05:13:04.992Z,101627.38
2023-09-27T05:18:01.895Z,101635.13
2023-09-27T05:22:58.701Z,101650.63
2023-09-27T05:27:56.338Z,101647.97
2023-09-27T05:32:53.381Z,101630.50
2023-09-27T05:37:50.649Z,101592.44
2023-09-27T05:42:47.475Z,101631.44
2023-09-27T05:47:44.512Z,101602.69
2023-09-27T05:52:46.305Z,101599.97
2023-09-27T05:57:43.192Z,101552.72
2023-09-27T06:02:40.052Z,101507.69
2023-09-27T06:07:36.920Z,101515.41
2023-09-27T06:12:34.022Z,101564.03
2023-09-27T06:17:30.864Z,101581.41
2023-09-27T06:22:28.780Z,101584.84
2023-09-27T06:27:25.694Z,101565.38
2023-09-27T06:32:24.275Z,101621.44
2023-09-27T06:37:21.293Z,101618.72
2023-09-27T06:42:18.441Z,101618.22
2023-09-27T06:47:16.047Z,101573.56
2023-09-27T06:52:13.826Z,101547.78
2023-09-27T06:57:10.546Z,101566.88
2023-09-27T07:02:07.691Z,101535.91
2023-09-27T07:07:04.432Z,101585.28
2023-09-27T07:12:01.665Z,101581.13
2023-09-27T07:17:01.463Z,101564.91
2023-09-27T07:21:58.528Z,101541.22
2023-09-27T07:26:55.767Z,101567.47
2023-09-27T07:31:52.608Z,101560.97
2023-09-27T07:36:49.600Z,101567.38
2023-09-27T07:41:46.539Z,101523.47
2023-09-27T07:46:43.453Z,101506.34
2023-09-27T07:51:40.309Z,101516.16
2023-09-27T07:56:41.768Z,101540.56
2023-09-27T08:01:38.775Z,101522.34
2023-09-27T08:06:36.033Z,101554.69
2023-09-27T08:11:33.318Z,101568.06
2023-09-27T08:16:30.887Z,101545.63
2023-09-27T08:21:27.680Z,101547.38
2023-09-27T08:26:24.746Z,101520.06
2023-09-27T08:31:21.612Z,101524.00
2023-09-27T08:36:18.437Z,101559.41
2023-09-27T08:41:16.889Z,101527.69
2023-09-27T08:46:13.792Z,101521.66
2023-09-27T08:51:10.725Z,101513.16
2023-09-27T08:56:08.224Z,101523.13
2023-09-27T09:01:09.440Z,101518.88
2023-09-27T09:06:12.384Z,101493.09
2023-09-27T09:11:18.248Z,101501.69
2023-09-27T09:16:15.514Z,101458.69
2023-09-27T09:21:20.132Z,101492.88
2023-09-27T09:26:31.546Z,101499.19
2023-09-27T09:31:30.113Z,101497.19
2023-09-27T09:36:30.464Z,101472.13
2023-09-27T09:41:45.462Z,101476.75
2023-09-27T09:46:44.126Z,101445.97
2023-09-27T09:51:43.113Z,101453.44
2023-09-27T09:56:51.227Z,101429.91
2023-09-27T10:02:01.338Z,101438.03
2023-09-27T10:07:00.259Z,101428.00
2023-09-27T10:11:57.955Z,101401.06
2023-09-27T10:16:55.469Z,101418.78
2023-09-27T10:22:06.646Z,101404.25
2023-09-27T10:27:04.201Z,101376.50
2023-09-27T10:32:02.583Z,101384.56
2023-09-27T10:37:17.376Z,101383.19
2023-09-27T10:42:44.327Z,101365.53
2023-09-27T10:47:42.141Z,101343.38
2023-09-27T10:52:40.184Z,101368.47
2023-09-27T10:57:37.028Z,101348.16
2023-09-27T11:02:34.435Z,101323.19
2023-09-27T11:07:48.338Z,101291.97
2023-09-27T11:12:45.251Z,101333.81
2023-09-27T11:17:42.179Z,101289.22
2023-09-27T11:22:39.128Z,101300.25
2023-09-27T11:27:35.933Z,101272.84
2023-09-27T11:32:49.808Z,101262.44
2023-09-27T11:37:46.707Z,101268.41
2023-09-27T11:42:50.657Z,101247.41
2023-09-27T11:47:51.885Z,101239.44
2023-09-27T11:52:49.162Z,101221.34
2023-09-27T11:57:46.120Z,101213.44
2023-09-27T12:02:55.672Z,101204.13
2023-09-27T12:07:53.922Z,101192.84
2023-09-27T12:12:50.866Z,101165.94
2023-09-27T12:17:47.715Z,101129.72
2023-09-27T12:22:44.785Z,101107.28
2023-09-27T12:27:41.789Z,101109.72
2023-09-27T12:32:38.695Z,101036.16
2023-09-27T12:37:37.068Z,100998.78
2023-09-27T12:42:34.085Z,101056.78
2023-09-27T12:47:33.240Z,101111.25
2023-09-27T12:52:30.204Z,101150.03
2023-09-27T12:57:26.986Z,101089.22
2023-09-27T13:02:23.966Z,101101.88
2023-09-27T13:07:20.860Z,101063.16
2023-09-27T13:12:18.096Z,101077.84
2023-09-27T13:17:15.052Z,101110.41
2023-09-27T13:22:12.622Z,101103.47
2023-09-27T13:27:10.130Z,101098.47
2023-09-27T13:32:07.184Z,101093.78
2023-09-27T13:37:04.221Z,101090.41
2023-09-27T13:42:01.248Z,101065.59
2023-09-27T13:46:58.329Z,101041.59
2023-09-27T13:51:55.247Z,101036.19
2023-09-27T13:56:52.097Z,101045.41
2023-09-27T14:01:49.551Z,101043.31
2023-09-27T14:06:46.928Z,101035.22
2023-09-27T14:11:44.213Z,101037.25
2023-09-27T14:16:42.121Z,101015.00
2023-09-27T14:21:40.533Z,101002.81
2023-09-27T14:26:38.063Z,100993.88
2023-09-27T14:31:35.303Z,100970.06
2023-09-27T14:36:33.982Z,100944.78
2023-09-27T14:41:30.851Z,100935.41
2023-09-27T14:46:28.001Z,100945.91
2023-09-27T14:51:24.941Z,100886.13
2023-09-27T14:56:23.170Z,100874.97
2023-09-27T15:01:20.356Z,100865.69
2023-09-27T15:06:17.283Z,100876.00
2023-09-27T15:16:35.616Z,100834.19
2023-09-27T15:21:32.567Z,100817.63
2023-09-27T15:26:35.384Z,100813.34
2023-09-27T15:31:32.664Z,100745.13
2023-09-27T15:36:30.418Z,100708.34
2023-09-27T15:41:38.261Z,100691.97
2023-09-27T15:46:41.203Z,100695.25
2023-09-27T15:51:38.966Z,100711.91
2023-09-27T15:56:36.000Z,100694.94
2023-09-27T16:01:32.756Z,100722.09
2023-09-27T16:06:31.345Z,100681.16
2023-09-27T16:11:31.403Z,100650.91
2023-09-27T16:16:28.673Z,100687.91
2023-09-27T16:21:25.470Z,100731.34
2023-09-27T16:26:22.734Z,100687.31
2023-09-27T16:31:19.590Z,100637.84
2023-09-27T16:36:18.235Z,100681.16
2023-09-27T16:41:19.333Z,100690.56
2023-09-27T16:46:16.468Z,100694.31
2023-09-27T16:51:13.245Z,100725.28
2023-09-27T16:56:10.016Z,100728.06
2023-09-27T17:01:07.059Z,100743.75
2023-09-27T17:06:04.677Z,100716.16
2023-09-27T17:11:02.258Z,100741.63
2023-09-27T17:15:59.141Z,100728.91
2023-09-27T17:20:55.939Z,100734.22
2023-09-27T17:25:52.726Z,100711.28
2023-09-27T17:30:49.755Z,100704.72
2023-09-27T17:35:46.818Z,100718.91
2023-09-27T17:40:43.765Z,100729.75
2023-09-27T17:45:40.637Z,100710.44
2023-09-27T17:50:37.817Z,100726.44
2023-09-27T17:55:34.785Z,100711.72
2023-09-27T18:00:32.100Z,100718.94
2023-09-27T18:05:29.578Z,100719.13
2023-09-27T18:10:26.374Z,100708.34
2023-09-27T18:15:28.091Z,100702.19
2023-09-27T18:20:25.591Z,100678.03
2023-09-27T18:25:22.857Z,100693.94
2023-09-27T18:30:19.679Z,100696.88
2023-09-27T18:35:16.870Z,100690.50
2023-09-27T18:40:13.756Z,100693.91
2023-09-27T18:45:11.189Z,100716.28
2023-09-27T18:50:08.261Z,100706.09
2023-09-27T18:55:05.517Z,100700.00
2023-09-27T19:00:02.315Z,100738.25
2023-09-27T19:04:59.248Z,100733.88
2023-09-27T19:09:56.242Z,100732.19
2023-09-27T19:14:53.316Z,100703.09
2023-09-27T19:19:50.132Z,100728.97
2023-09-27T19:24:47.008Z,100753.50
2023-09-27T19:29:45.565Z,100752.34
2023-09-27T19:34:42.400Z,100739.22
2023-09-27T19:39:39.163Z,100778.53
2023-09-27T19:44:36.817Z,100745.50
2023-09-27T19:49:34.355Z,100772.75
2023-09-27T19:54:31.187Z,100774.59
2023-09-27T19:59:28.218Z,100776.88
2023-09-27T20:04:25.082Z,100764.34
2023-09-27T20:09:21.902Z,100814.91
2023-09-27T20:14:18.737Z,100804.84
2023-09-27T20:19:15.953Z,100785.47
2023-09-27T20:24:12.713Z,100778.31
2023-09-27T20:29:09.475Z,100828.66
2023-09-27T20:34:06.596Z,100791.09
2023-09-27T20:39:03.482Z,100834.38
2023-09-27T20:44:00.578Z,100817.00
2023-09-27T20:48:57.688Z,100839.63
2023-09-27T20:53:55.520Z,100825.84
2023-09-27T20:58:52.608Z,100781.53
2023-09-27T21:03:49.444Z,100805.59
2023-09-27T21:08:46.244Z,100829.41
2023-09-27T21:13:43.292Z,100773.94
2023-09-27T21:18:40.105Z,100819.63
2023-09-27T21:23:36.848Z,100846.97
2023-09-27T21:28:33.685Z,100843.72
2023-09-27T21:33:30.441Z,100859.56
2023-09-27T21:38:28.081Z,100826.88
2023-09-27T21:43:28.718Z,100853.50
2023-09-27T21:48:25.572Z,100831.84
2023-09-27T21:53:22.724Z,100868.31
2023-09-27T21:58:19.513Z,100850.97
2023-09-27T22:03:18.646Z,100835.34
2023-09-27T22:08:24.612Z,100849.09
2023-09-27T22:13:24.328Z,100838.91
2023-09-27T22:18:21.752Z,100843.81
2023-09-27T22:23:33.384Z,100857.63
2023-09-27T22:28:32.482Z,100847.94
2023-09-27T22:33:34.463Z,100874.38
2023-09-27T22:38:51.127Z,100860.69
2023-09-27T22:43:53.817Z,100898.75
2023-09-27T22:48:51.774Z,100895.91
2023-09-27T22:53:48.640Z,100914.63
2023-09-27T22:58:45.940Z,100890.91
2023-09-27T23:03:42.860Z,100916.97
2023-09-27T23:08:39.729Z,100911.09
2023-09-27T23:13:38.037Z,100944.59
2023-09-27T23:18:35.394Z,100934.69
2023-09-27T23:23:38.268Z,100940.03
2023-09-27T23:28:37.884Z,100929.06
2023-09-27T23:33:47.375Z,100904.34
2023-09-27T23:38:57.301Z,100947.91
2023-09-27T23:43:54.400Z,100943.81
2023-09-27T23:48:54.118Z,100970.78
2023-09-27T23:53:51.921Z,100988.38
2023-09-27T23:59:43.954Z,101008.03
